sensor_id;sensor_type;location;lat;lon;timestamp;pressure;altitude;pressure_sealevel;temperature;humidity
40574;BME280;26283;49.020;8.644;2024-01-15T00:01:11;98377.25;;;3.65;63.58
40574;BME280;26283;49.020;8.644;2024-01-15T00:03:36;98381.56;;;3.66;63.59
40574;BME280;26283;49.020;8.644;2024-01-15T00:06:02;98382.59;;;3.65;63.59
40574;BME280;26283;49.020;8.644;2024-01-15T00:08:27;98385.25;;;3.65;63.60
40574;BME280;26283;49.020;8.644;2024-01-15T00:10:53;98383.41;;;3.65;63.60
40574;BME280;26283;49.020;8.644;2024-01-15T00:13:18;98375.41;;;3.65;63.59
40574;BME280;26283;49.020;8.644;2024-01-15T00:15:43;98365.78;;;3.64;63.58
40574;BME280;26283;49.020;8.644;2024-01-15T00:18:09;98359.63;;;3.64;63.60
40574;BME280;26283;49.020;8.644;2024-01-15T00:20:34;98357.78;;;3.64;63.61
40574;BME280;26283;49.020;8.644;2024-01-15T00:22:59;98360.44;;;3.64;63.60
40574;BME280;26283;49.020;8.644;2024-01-15T00:25:25;98361.28;;;3.65;63.61
40574;BME280;26283;49.020;8.644;2024-01-15T00:27:50;98352.66;;;3.63;63.61
40574;BME280;26283;49.020;8.644;2024-01-15T00:30:15;98356.97;;;3.64;63.62
40574;BME280;26283;49.020;8.644;2024-01-15T00:32:41;98359.63;;;3.64;63.62
40574;BME280;26283;49.020;8.644;2024-01-15T00:35:06;98363.13;;;3.64;63.63
40574;BME280;26283;49.020;8.644;2024-01-15T00:37:32;98363.13;;;3.64;63.63
40574;BME280;26283;49.020;8.644;2024-01-15T00:39:57;98354.28;;;3.64;63.63
40574;BME280;26283;49.020;8.644;2024-01-15T00:42:23;98355.31;;;3.63;63.63
40574;BME280;26283;49.020;8.644;2024-01-15T00:44:48;98350.81;;;3.63;63.64
40574;BME280;26283;49.020;8.644;2024-01-15T00:47:13;98347.13;;;3.64;63.64
40574;BME280;26283;49.020;8.644;2024-01-15T00:49:39;98344.47;;;3.64;63.64
40574;BME280;26283;49.020;8.644;2024-01-15T00:52:05;98343.62;;;3.64;63.65
40574;BME280;26283;49.020;8.644;2024-01-15T00:54:30;98344.47;;;3.64;63.64
40574;BME280;26283;49.020;8.644;2024-01-15T00:56:55;98340.97;;;3.64;63.62
40574;BME280;26283;49.020;8.644;2024-01-15T00:59:21;98335.44;;;3.65;63.61
40574;BME280;26283;49.020;8.644;2024-01-15T01:01:46;98339.97;;;3.65;63.61
40574;BME280;26283;49.020;8.644;2024-01-15T01:04:12;98336.28;;;3.66;63.62
40574;BME280;26283;49.020;8.644;2024-01-15T01:06:37;98332.97;;;3.64;63.62
40574;BME280;26283;49.020;8.644;2024-01-15T01:09:03;98339.13;;;3.64;63.61
40574;BME280;26283;49.020;8.644;2024-01-15T01:11:28;98339.13;;;3.64;63.62
40574;BME280;26283;49.020;8.644;2024-01-15T01:13:54;98345.28;;;3.65;63.62
40574;BME280;26283;49.020;8.644;2024-01-15T01:16:19;98338.31;;;3.64;63.63
40574;BME280;26283;49.020;8.644;2024-01-15T01:18:45;98335.66;;;3.64;63.63
40574;BME280;26283;49.020;8.644;2024-01-15T01:21:10;98339.13;;;3.64;63.61
40574;BME280;26283;49.020;8.644;2024-01-15T01:23:35;98339.13;;;3.64;63.61
40574;BME280;26283;49.020;8.644;2024-01-15T01:26:01;98329.50;;;3.63;63.63
40574;BME280;26283;49.020;8.644;2024-01-15T01:28:27;98332.97;;;3.64;63.64
40574;BME280;26283;49.020;8.644;2024-01-15T01:30:53;98325.00;;;3.64;63.64
40574;BME280;26283;49.020;8.644;2024-01-15T01:33:18;98321.50;;;3.63;63.63
40574;BME280;26283;49.020;8.644;2024-01-15T01:35:43;98321.50;;;3.63;63.63
40574;BME280;26283;49.020;8.644;2024-01-15T01:38:10;98314.34;;;3.64;63.61
40574;BME280;26283;49.020;8.644;2024-01-15T01:40:35;98320.47;;;3.64;63.63
40574;BME280;26283;49.020;8.644;2024-01-15T01:43:03;98313.50;;;3.63;63.63
40574;BME280;26283;49.020;8.644;2024-01-15T01:45:28;98323.97;;;3.65;63.63
40574;BME280;26283;49.020;8.644;2024-01-15T01:47:53;98326.63;;;3.65;63.61
40574;BME280;26283;49.020;8.644;2024-01-15T01:50:19;98330.13;;;3.65;63.62
40574;BME280;26283;49.020;8.644;2024-01-15T01:52:45;98333.81;;;3.64;63.62
40574;BME280;26283;49.020;8.644;2024-01-15T01:55:11;98331.16;;;3.64;63.61
40574;BME280;26283;49.020;8.644;2024-01-15T01:57:37;98325.81;;;3.64;63.59
40574;BME280;26283;49.020;8.644;2024-01-15T02:00:04;98327.47;;;3.65;63.60
40574;BME280;26283;49.020;8.644;2024-01-15T02:02:31;98315.16;;;3.64;63.59
40574;BME280;26283;49.020;8.644;2024-01-15T02:04:57;98313.31;;;3.65;63.59
40574;BME280;26283;49.020;8.644;2024-01-15T02:07:22;98315.16;;;3.64;63.59
40574;BME280;26283;49.020;8.644;2024-01-15T02:09:49;98303.69;;;3.64;63.59
40574;BME280;26283;49.020;8.644;2024-01-15T02:12:14;98306.16;;;3.65;63.60
40574;BME280;26283;49.020;8.644;2024-01-15T02:14:40;98306.34;;;3.64;63.59
40574;BME280;26283;49.020;8.644;2024-01-15T02:17:06;98292.19;;;3.63;63.60
40574;BME280;26283;49.020;8.644;2024-01-15T02:19:31;98305.53;;;3.63;63.62
40574;BME280;26283;49.020;8.644;2024-01-15T02:21:57;98295.69;;;3.64;63.61
40574;BME280;26283;49.020;8.644;2024-01-15T02:24:22;98294.03;;;3.63;63.61
40574;BME280;26283;49.020;8.644;2024-01-15T02:26:48;98288.72;;;3.63;63.61
40574;BME280;26283;49.020;8.644;2024-01-15T02:29:14;98287.88;;;3.62;63.61
40574;BME280;26283;49.020;8.644;2024-01-15T02:31:40;98295.69;;;3.64;63.60
40574;BME280;26283;49.020;8.644;2024-01-15T02:34:05;98298.53;;;3.62;63.61
40574;BME280;26283;49.020;8.644;2024-01-15T02:36:31;98300.19;;;3.63;63.59
40574;BME280;26283;49.020;8.644;2024-01-15T02:38:57;98302.03;;;3.63;63.60
40574;BME280;26283;49.020;8.644;2024-01-15T02:41:22;98297.53;;;3.63;63.61
40574;BME280;26283;49.020;8.644;2024-01-15T02:43:47;98304.69;;;3.63;63.61
40574;BME280;26283;49.020;8.644;2024-01-15T02:46:13;98302.03;;;3.63;63.63
40574;BME280;26283;49.020;8.644;2024-01-15T02:48:38;98308.37;;;3.62;63.61
40574;BME280;26283;49.020;8.644;2024-01-15T02:51:04;98301.22;;;3.62;63.61
40574;BME280;26283;49.020;8.644;2024-01-15T02:53:29;98304.69;;;3.63;63.60
40574;BME280;26283;49.020;8.644;2024-01-15T02:55:54;98299.38;;;3.63;63.61
40574;BME280;26283;49.020;8.644;2024-01-15T02:58:21;98294.03;;;3.63;63.62
40574;BME280;26283;49.020;8.644;2024-01-15T03:00:46;98293.22;;;3.62;63.63
40574;BME280;26283;49.020;8.644;2024-01-15T03:03:12;98295.06;;;3.62;63.62
40574;BME280;26283;49.020;8.644;2024-01-15T03:05:37;98303.88;;;3.62;63.63
40574;BME280;26283;49.020;8.644;2024-01-15T03:08:03;98295.06;;;3.62;63.62
40574;BME280;26283;49.020;8.644;2024-01-15T03:10:28;98303.06;;;3.62;63.62
40574;BME280;26283;49.020;8.644;2024-01-15T03:12:54;98299.38;;;3.63;63.62
40574;BME280;26283;49.020;8.644;2024-01-15T03:15:19;98292.19;;;3.63;63.62
40574;BME280;26283;49.020;8.644;2024-01-15T03:17:45;98292.41;;;3.62;63.62
40574;BME280;26283;49.020;8.644;2024-01-15T03:20:10;98291.38;;;3.63;63.62
40574;BME280;26283;49.020;8.644;2024-01-15T03:22:36;98293.22;;;3.62;63.61
40574;BME280;26283;49.020;8.644;2024-01-15T03:25:02;98292.41;;;3.62;63.63
40574;BME280;26283;49.020;8.644;2024-01-15T03:27:28;98284.41;;;3.62;63.63
40574;BME280;26283;49.020;8.644;2024-01-15T03:29:53;98287.88;;;3.62;63.64
40574;BME280;26283;49.020;8.644;2024-01-15T03:32:18;98285.41;;;3.61;63.64
40574;BME280;26283;49.020;8.644;2024-01-15T03:34:44;98280.09;;;3.61;63.63
40574;BME280;26283;49.020;8.644;2024-01-15T03:37:11;98280.09;;;3.61;63.64
40574;BME280;26283;49.020;8.644;2024-01-15T03:39:36;98288.72;;;3.63;63.63
40574;BME280;26283;49.020;8.644;2024-01-15T03:42:01;98292.41;;;3.62;63.63
40574;BME280;26283;49.020;8.644;2024-01-15T03:44:27;98276.41;;;3.62;63.63
40574;BME280;26283;49.020;8.644;2024-01-15T03:46:52;98281.75;;;3.62;63.61
40574;BME280;26283;49.020;8.644;2024-01-15T03:49:17;98267.41;;;3.63;63.62
40574;BME280;26283;49.020;8.644;2024-01-15T03:51:43;98272.94;;;3.61;63.61
40574;BME280;26283;49.020;8.644;2024-01-15T03:54:08;98271.91;;;3.62;63.61
40574;BME280;26283;49.020;8.644;2024-01-15T03:56:33;98268.22;;;3.63;63.61
40574;BME280;26283;49.020;8.644;2024-01-15T03:58:59;98257.75;;;3.62;63.62
40574;BME280;26283;49.020;8.644;2024-01-15T04:01:24;98252.25;;;3.63;63.61
40574;BME280;26283;49.020;8.644;2024-01-15T04:03:49;98268.41;;;3.62;63.61
40574;BME280;26283;49.020;8.644;2024-01-15T04:06:15;98278.87;;;3.63;63.61
40574;BME280;26283;49.020;8.644;2024-01-15T04:08:40;98269.25;;;3.62;63.60
40574;BME280;26283;49.020;8.644;2024-01-15T04:11:06;98274.56;;;3.62;63.61
40574;BME280;26283;49.020;8.644;2024-01-15T04:13:34;98259.41;;;3.63;63.60
40574;BME280;26283;49.020;8.644;2024-01-15T04:16:00;98255.91;;;3.62;63.59
40574;BME280;26283;49.020;8.644;2024-01-15T04:18:26;98253.25;;;3.62;63.60
40574;BME280;26283;49.020;8.644;2024-01-15T04:20:51;98235.63;;;3.61;63.60
40574;BME280;26283;49.020;8.644;2024-01-15T04:23:16;98238.09;;;3.63;63.61
40574;BME280;26283;49.020;8.644;2024-01-15T04:25:42;98228.47;;;3.62;63.60
40574;BME280;26283;49.020;8.644;2024-01-15T04:28:08;98228.47;;;3.62;63.60
40574;BME280;26283;49.020;8.644;2024-01-15T04:30:34;98223.13;;;3.62;63.60
40574;BME280;26283;49.020;8.644;2024-01-15T04:32:59;98222.12;;;3.63;63.61
40574;BME280;26283;49.020;8.644;2024-01-15T04:35:24;98220.47;;;3.62;63.61
40574;BME280;26283;49.020;8.644;2024-01-15T04:37:50;98214.94;;;3.63;63.61
40574;BME280;26283;49.020;8.644;2024-01-15T04:40:15;98207.16;;;3.62;63.60
40574;BME280;26283;49.020;8.644;2024-01-15T04:42:41;98207.16;;;3.62;63.60
40574;BME280;26283;49.020;8.644;2024-01-15T04:45:06;98202.66;;;3.62;63.59
40574;BME280;26283;49.020;8.644;2024-01-15T04:47:32;98191.16;;;3.62;63.59
40574;BME280;26283;49.020;8.644;2024-01-15T04:49:57;98198.34;;;3.61;63.59
40574;BME280;26283;49.020;8.644;2024-01-15T04:52:23;98213.09;;;3.64;63.60
40574;BME280;26283;49.020;8.644;2024-01-15T04:54:48;98211.66;;;3.61;63.60
40574;BME280;26283;49.020;8.644;2024-01-15T04:57:14;98213.31;;;3.62;63.60
40574;BME280;26283;49.020;8.644;2024-01-15T04:59:40;98207.16;;;3.62;63.59
40574;BME280;26283;49.020;8.644;2024-01-15T05:02:05;98211.47;;;3.63;63.59
40574;BME280;26283;49.020;8.644;2024-01-15T05:04:30;98207.97;;;3.62;63.61
40574;BME280;26283;49.020;8.644;2024-01-15T05:06:56;98209.81;;;3.62;63.60
40574;BME280;26283;49.020;8.644;2024-01-15T05:09:21;98207.16;;;3.62;63.61
40574;BME280;26283;49.020;8.644;2024-01-15T05:11:47;98206.31;;;3.61;63.61
40574;BME280;26283;49.020;8.644;2024-01-15T05:14:12;98202.66;;;3.62;63.60
40574;BME280;26283;49.020;8.644;2024-01-15T05:16:38;98201.00;;;3.61;63.61
40574;BME280;26283;49.020;8.644;2024-01-15T05:19:04;98195.47;;;3.63;63.61
40574;BME280;26283;49.020;8.644;2024-01-15T05:21:29;98194.84;;;3.61;63.61
40574;BME280;26283;49.020;8.644;2024-01-15T05:23:54;98193.84;;;3.62;63.60
40574;BME280;26283;49.020;8.644;2024-01-15T05:26:20;98188.50;;;3.62;63.60
40574;BME280;26283;49.020;8.644;2024-01-15T05:28:45;98183.16;;;3.62;63.59
40574;BME280;26283;49.020;8.644;2024-01-15T05:31:10;98175.19;;;3.62;63.59
40574;BME280;26283;49.020;8.644;2024-01-15T05:33:37;98175.19;;;3.62;63.59
40574;BME280;26283;49.020;8.644;2024-01-15T05:36:02;98175.19;;;3.62;63.59
40574;BME280;26283;49.020;8.644;2024-01-15T05:38:27;98171.50;;;3.63;63.60
40574;BME280;26283;49.020;8.644;2024-01-15T05:40:53;98170.69;;;3.62;63.60
40574;BME280;26283;49.020;8.644;2024-01-15T05:43:18;98173.34;;;3.62;63.61
40574;BME280;26283;49.020;8.644;2024-01-15T05:45:44;98169.84;;;3.62;63.60
40574;BME280;26283;49.020;8.644;2024-01-15T05:48:10;98166.16;;;3.63;63.60
40574;BME280;26283;49.020;8.644;2024-01-15T05:50:35;98180.50;;;3.62;63.60
40574;BME280;26283;49.020;8.644;2024-01-15T05:53:00;98178.66;;;3.62;63.59
40574;BME280;26283;49.020;8.644;2024-01-15T05:55:26;98182.16;;;3.63;63.59
40574;BME280;26283;49.020;8.644;2024-01-15T05:57:51;98186.66;;;3.62;63.58
40574;BME280;26283;49.020;8.644;2024-01-15T06:00:17;98192.81;;;3.63;63.58
40574;BME280;26283;49.020;8.644;2024-01-15T06:02:42;98176.81;;;3.63;63.58
40574;BME280;26283;49.020;8.644;2024-01-15T06:05:07;98168.00;;;3.62;63.59
40574;BME280;26283;49.020;8.644;2024-01-15T06:07:35;98160.84;;;3.63;63.59
40574;BME280;26283;49.020;8.644;2024-01-15T06:10:02;98159.19;;;3.62;63.59
40574;BME280;26283;49.020;8.644;2024-01-15T06:12:28;98155.50;;;3.63;63.58
40574;BME280;26283;49.020;8.644;2024-01-15T06:14:53;98156.53;;;3.62;63.59
40574;BME280;26283;49.020;8.644;2024-01-15T06:17:18;98163.50;;;3.63;63.59
40574;BME280;26283;49.020;8.644;2024-01-15T06:19:44;98163.50;;;3.63;63.59
40574;BME280;26283;49.020;8.644;2024-01-15T06:22:09;98155.50;;;3.63;63.58
40574;BME280;26283;49.020;8.644;2024-01-15T06:24:34;98165.34;;;3.62;63.58
40574;BME280;26283;49.020;8.644;2024-01-15T06:27:00;98160.03;;;3.62;63.58
40574;BME280;26283;49.020;8.644;2024-01-15T06:29:26;98158.19;;;3.63;63.58
40574;BME280;26283;49.020;8.644;2024-01-15T06:31:51;98153.88;;;3.62;63.57
40574;BME280;26283;49.020;8.644;2024-01-15T06:34:17;98153.66;;;3.63;63.55
40574;BME280;26283;49.020;8.644;2024-01-15T06:36:42;98154.69;;;3.62;63.56
40574;BME280;26283;49.020;8.644;2024-01-15T06:39:08;98167.81;;;3.64;63.56
40574;BME280;26283;49.020;8.644;2024-01-15T06:41:33;98158.19;;;3.63;63.56
40574;BME280;26283;49.020;8.644;2024-01-15T06:43:58;98166.16;;;3.63;63.56
40574;BME280;26283;49.020;8.644;2024-01-15T06:46:24;98156.34;;;3.63;63.56
40574;BME280;26283;49.020;8.644;2024-01-15T06:48:49;98144.03;;;3.62;63.58
40574;BME280;26283;49.020;8.644;2024-01-15T06:51:15;98147.53;;;3.63;63.58
40574;BME280;26283;49.020;8.644;2024-01-15T06:53:41;98142.19;;;3.63;63.56
40574;BME280;26283;49.020;8.644;2024-01-15T06:56:06;98139.53;;;3.63;63.55
40574;BME280;26283;49.020;8.644;2024-01-15T06:58:32;98152.66;;;3.64;63.55
40574;BME280;26283;49.020;8.644;2024-01-15T07:00:58;98153.88;;;3.62;63.56
40574;BME280;26283;49.020;8.644;2024-01-15T07:03:24;98153.66;;;3.63;63.58
40574;BME280;26283;49.020;8.644;2024-01-15T07:05:49;98152.84;;;3.63;63.57
40574;BME280;26283;49.020;8.644;2024-01-15T07:08:14;98155.50;;;3.63;63.57
40574;BME280;26283;49.020;8.644;2024-01-15T07:10:40;98155.50;;;3.63;63.57
40574;BME280;26283;49.020;8.644;2024-01-15T07:13:05;98162.50;;;3.64;63.57
40574;BME280;26283;49.020;8.644;2024-01-15T07:15:31;98160.84;;;3.63;63.56
40574;BME280;26283;49.020;8.644;2024-01-15T07:17:56;98165.16;;;3.64;63.55
40574;BME280;26283;49.020;8.644;2024-01-15T07:20:22;98151.00;;;3.63;63.54
40574;BME280;26283;49.020;8.644;2024-01-15T07:22:47;98154.50;;;3.64;63.55
40574;BME280;26283;49.020;8.644;2024-01-15T07:25:13;98159.81;;;3.64;63.55
40574;BME280;26283;49.020;8.644;2024-01-15T07:27:38;98159.81;;;3.64;63.55
40574;BME280;26283;49.020;8.644;2024-01-15T07:30:04;98170.47;;;3.64;63.55
40574;BME280;26283;49.020;8.644;2024-01-15T07:32:31;98171.50;;;3.63;63.54
40574;BME280;26283;49.020;8.644;2024-01-15T07:34:57;98167.00;;;3.63;63.54
40574;BME280;26283;49.020;8.644;2024-01-15T07:37:24;98172.31;;;3.63;63.55
40574;BME280;26283;49.020;8.644;2024-01-15T07:39:50;98172.31;;;3.63;63.55
40574;BME280;26283;49.020;8.644;2024-01-15T07:42:15;98181.13;;;3.64;63.56
40574;BME280;26283;49.020;8.644;2024-01-15T07:44:40;98182.78;;;3.65;63.56
40574;BME280;26283;49.020;8.644;2024-01-15T07:47:06;98173.13;;;3.64;63.55
40574;BME280;26283;49.020;8.644;2024-01-15T07:49:31;98172.31;;;3.63;63.55
40574;BME280;26283;49.020;8.644;2024-01-15T07:51:56;98178.47;;;3.64;63.55
40574;BME280;26283;49.020;8.644;2024-01-15T07:54:22;98172.31;;;3.63;63.55
40574;BME280;26283;49.020;8.644;2024-01-15T07:56:59;98167.00;;;3.63;63.55
40574;BME280;26283;49.020;8.644;2024-01-15T07:59:25;98164.13;;;3.65;63.56
40574;BME280;26283;49.020;8.644;2024-01-15T08:01:51;98169.66;;;3.63;63.54
40574;BME280;26283;49.020;8.644;2024-01-15T08:04:17;98170.47;;;3.64;63.55
40574;BME280;26283;49.020;8.644;2024-01-15T08:06:42;98178.47;;;3.64;63.55
40574;BME280;26283;49.020;8.644;2024-01-15T08:09:07;98175.59;;;3.65;63.55
40574;BME280;26283;49.020;8.644;2024-01-15T08:11:34;98167.81;;;3.64;63.54
40574;BME280;26283;49.020;8.644;2024-01-15T08:13:59;98173.13;;;3.64;63.53
40574;BME280;26283;49.020;8.644;2024-01-15T08:16:25;98182.78;;;3.65;63.53
40574;BME280;26283;49.020;8.644;2024-01-15T08:18:50;98171.31;;;3.64;63.54
40574;BME280;26283;49.020;8.644;2024-01-15T08:21:16;98163.31;;;3.64;63.54
40574;BME280;26283;49.020;8.644;2024-01-15T08:23:41;98166.16;;;3.63;63.53
40574;BME280;26283;49.020;8.644;2024-01-15T08:26:07;98166.78;;;3.65;63.52
40574;BME280;26283;49.020;8.644;2024-01-15T08:28:34;98173.13;;;3.64;63.53
40574;BME280;26283;49.020;8.644;2024-01-15T08:30:59;98170.47;;;3.64;63.52
40574;BME280;26283;49.020;8.644;2024-01-15T08:33:24;98169.66;;;3.63;63.52
40574;BME280;26283;49.020;8.644;2024-01-15T08:35:50;98165.16;;;3.64;63.53
40574;BME280;26283;49.020;8.644;2024-01-15T08:38:15;98161.66;;;3.63;63.53
40574;BME280;26283;49.020;8.644;2024-01-15T08:40:40;98165.97;;;3.64;63.53
40574;BME280;26283;49.020;8.644;2024-01-15T08:43:06;98174.97;;;3.63;63.52
40574;BME280;26283;49.020;8.644;2024-01-15T08:45:32;98168.62;;;3.64;63.51
40574;BME280;26283;49.020;8.644;2024-01-15T08:47:58;98169.47;;;3.65;63.51
40574;BME280;26283;49.020;8.644;2024-01-15T08:50:23;98168.62;;;3.64;63.50
40574;BME280;26283;49.020;8.644;2024-01-15T08:52:49;98172.13;;;3.65;63.51
40574;BME280;26283;49.020;8.644;2024-01-15T08:55:14;98153.47;;;3.65;63.52
40574;BME280;26283;49.020;8.644;2024-01-15T08:57:40;98156.13;;;3.65;63.52
40574;BME280;26283;49.020;8.644;2024-01-15T09:00:05;98155.31;;;3.64;63.52
40574;BME280;26283;49.020;8.644;2024-01-15T09:02:34;98153.47;;;3.65;63.52
40574;BME280;26283;49.020;8.644;2024-01-15T09:04:59;98161.47;;;3.65;63.52
40574;BME280;26283;49.020;8.644;2024-01-15T09:07:24;98164.94;;;3.65;63.52
40574;BME280;26283;49.020;8.644;2024-01-15T09:09:51;98147.13;;;3.66;63.51
40574;BME280;26283;49.020;8.644;2024-01-15T09:12:16;98148.16;;;3.65;63.51
40574;BME280;26283;49.020;8.644;2024-01-15T09:14:43;98154.28;;;3.65;63.51
40574;BME280;26283;49.020;8.644;2024-01-15T09:17:09;98148.16;;;3.65;63.52
40574;BME280;26283;49.020;8.644;2024-01-15T09:19:35;98146.31;;;3.65;63.51
40574;BME280;26283;49.020;8.644;2024-01-15T09:22:00;98139.94;;;3.66;63.51
40574;BME280;26283;49.020;8.644;2024-01-15T09:24:25;98144.47;;;3.66;63.50
40574;BME280;26283;49.020;8.644;2024-01-15T09:26:51;98138.31;;;3.65;63.50
40574;BME280;26283;49.020;8.644;2024-01-15T09:29:16;98136.47;;;3.66;63.49
40574;BME280;26283;49.020;8.644;2024-01-15T09:31:43;98134.81;;;3.65;63.50
40574;BME280;26283;49.020;8.644;2024-01-15T09:34:09;98137.28;;;3.66;63.50
40574;BME280;26283;49.020;8.644;2024-01-15T09:36:43;98135.66;;;3.65;63.50
40574;BME280;26283;49.020;8.644;2024-01-15T09:39:09;98137.50;;;3.65;63.50
40574;BME280;26283;49.020;8.644;2024-01-15T09:41:36;98139.13;;;3.66;63.50
40574;BME280;26283;49.020;8.644;2024-01-15T09:44:03;98144.47;;;3.66;63.50
40574;BME280;26283;49.020;8.644;2024-01-15T09:46:28;98144.47;;;3.66;63.51
40574;BME280;26283;49.020;8.644;2024-01-15T09:48:54;98145.28;;;3.66;63.50
40574;BME280;26283;49.020;8.644;2024-01-15T09:51:19;98139.13;;;3.66;63.50
40574;BME280;26283;49.020;8.644;2024-01-15T09:53:46;98141.59;;;3.67;63.48
40574;BME280;26283;49.020;8.644;2024-01-15T09:56:12;98144.25;;;3.67;63.48
40574;BME280;26283;49.020;8.644;2024-01-15T09:58:38;98140.78;;;3.67;63.48
40574;BME280;26283;49.020;8.644;2024-01-15T10:01:04;98132.97;;;3.65;63.49
40574;BME280;26283;49.020;8.644;2024-01-15T10:03:29;98135.44;;;3.67;63.48
40574;BME280;26283;49.020;8.644;2024-01-15T10:05:58;98122.12;;;3.67;63.48
40574;BME280;26283;49.020;8.644;2024-01-15T10:08:25;98125.59;;;3.67;63.47
40574;BME280;26283;49.020;8.644;2024-01-15T10:10:50;98123.78;;;3.68;63.47
40574;BME280;26283;49.020;8.644;2024-01-15T10:13:16;98112.06;;;3.69;63.47
40574;BME280;26283;49.020;8.644;2024-01-15T10:15:45;98109.63;;;3.67;63.46
40574;BME280;26283;49.020;8.644;2024-01-15T10:18:12;98104.31;;;3.67;63.46
40574;BME280;26283;49.020;8.644;2024-01-15T10:20:37;98098.16;;;3.67;63.46
40574;BME280;26283;49.020;8.644;2024-01-15T10:23:03;98096.06;;;3.69;63.46
40574;BME280;26283;49.020;8.644;2024-01-15T10:25:29;98090.75;;;3.69;63.47
40574;BME280;26283;49.020;8.644;2024-01-15T10:28:00;98089.94;;;3.68;63.46
40574;BME280;26283;49.020;8.644;2024-01-15T10:30:26;98089.13;;;3.68;63.47
40574;BME280;26283;49.020;8.644;2024-01-15T10:32:59;98085.41;;;3.69;63.45
40574;BME280;26283;49.020;8.644;2024-01-15T10:35:29;98089.13;;;3.68;63.46
40574;BME280;26283;49.020;8.644;2024-01-15T10:37:55;98080.09;;;3.69;63.45
40574;BME280;26283;49.020;8.644;2024-01-15T10:40:21;98076.59;;;3.68;63.45
40574;BME280;26283;49.020;8.644;2024-01-15T10:42:46;98073.94;;;3.68;63.45
40574;BME280;26283;49.020;8.644;2024-01-15T10:45:13;98078.25;;;3.69;63.45
40574;BME280;26283;49.020;8.644;2024-01-15T10:47:39;98068.62;;;3.68;63.44
40574;BME280;26283;49.020;8.644;2024-01-15T10:50:05;98071.91;;;3.70;63.44
40574;BME280;26283;49.020;8.644;2024-01-15T10:52:33;98077.22;;;3.70;63.43
40574;BME280;26283;49.020;8.644;2024-01-15T10:55:00;98070.25;;;3.69;63.43
40574;BME280;26283;49.020;8.644;2024-01-15T10:57:26;98065.75;;;3.70;63.43
40574;BME280;26283;49.020;8.644;2024-01-15T10:59:52;98054.06;;;3.71;63.43
40574;BME280;26283;49.020;8.644;2024-01-15T11:02:18;98054.06;;;3.71;63.42
40574;BME280;26283;49.020;8.644;2024-01-15T11:04:43;98051.41;;;3.71;63.41
40574;BME280;26283;49.020;8.644;2024-01-15T11:07:10;98048.75;;;3.71;63.41
40574;BME280;26283;49.020;8.644;2024-01-15T11:09:36;98047.72;;;3.72;63.40
40574;BME280;26283;49.020;8.644;2024-01-15T11:12:11;98046.91;;;3.71;63.40
40574;BME280;26283;49.020;8.644;2024-01-15T11:14:42;98044.22;;;3.71;63.40
40574;BME280;26283;49.020;8.644;2024-01-15T11:17:11;98045.06;;;3.72;63.39
40574;BME280;26283;49.020;8.644;2024-01-15T11:19:38;98043.22;;;3.72;63.39
40574;BME280;26283;49.020;8.644;2024-01-15T11:24:54;98043.22;;;3.72;63.41
40574;BME280;26283;49.020;8.644;2024-01-15T11:27:39;98047.72;;;3.72;63.39
40574;BME280;26283;49.020;8.644;2024-01-15T11:30:07;98048.53;;;3.72;63.41
40574;BME280;26283;49.020;8.644;2024-01-15T11:32:34;98054.69;;;3.73;63.40
40574;BME280;26283;49.020;8.644;2024-01-15T11:35:01;98058.16;;;3.73;63.40
40574;BME280;26283;49.020;8.644;2024-01-15T11:40:12;98055.50;;;3.73;63.41
40574;BME280;26283;49.020;8.644;2024-01-15T11:42:38;98055.50;;;3.73;63.38
40574;BME280;26283;49.020;8.644;2024-01-15T11:45:03;98060.84;;;3.73;63.39
40574;BME280;26283;49.020;8.644;2024-01-15T11:50:14;98061.44;;;3.75;63.39
40574;BME280;26283;49.020;8.644;2024-01-15T11:52:43;98057.16;;;3.74;63.36
40574;BME280;26283;49.020;8.644;2024-01-15T11:55:28;98073.94;;;3.75;63.36
40574;BME280;26283;49.020;8.644;2024-01-15T11:57:55;98065.97;;;3.75;63.36
40574;BME280;26283;49.020;8.644;2024-01-15T12:00:23;98073.94;;;3.75;63.34
40574;BME280;26283;49.020;8.644;2024-01-15T12:02:49;98065.97;;;3.75;63.36
40574;BME280;26283;49.020;8.644;2024-01-15T12:05:17;98083.78;;;3.74;63.36
40574;BME280;26283;49.020;8.644;2024-01-15T12:07:43;98081.75;;;3.76;63.37
40574;BME280;26283;49.020;8.644;2024-01-15T12:10:10;98082.78;;;3.75;63.35
40574;BME280;26283;49.020;8.644;2024-01-15T12:13:11;98076.41;;;3.76;63.35
40574;BME280;26283;49.020;8.644;2024-01-15T12:15:38;98075.59;;;3.76;63.36
40574;BME280;26283;49.020;8.644;2024-01-15T12:18:08;98060.44;;;3.76;63.31
40574;BME280;26283;49.020;8.644;2024-01-15T12:20:33;98078.25;;;3.76;63.33
40574;BME280;26283;49.020;8.644;2024-01-15T12:23:00;98074.56;;;3.77;63.34
40574;BME280;26283;49.020;8.644;2024-01-15T12:25:26;98081.75;;;3.76;63.36
40574;BME280;26283;49.020;8.644;2024-01-15T12:27:53;98063.91;;;3.77;63.35
40574;BME280;26283;49.020;8.644;2024-01-15T12:30:19;98075.41;;;3.77;63.35
40574;BME280;26283;49.020;8.644;2024-01-15T12:32:44;98061.25;;;3.77;63.32
40574;BME280;26283;49.020;8.644;2024-01-15T12:35:10;98064.75;;;3.77;63.31
40574;BME280;26283;49.020;8.644;2024-01-15T12:37:37;98070.06;;;3.77;63.31
40574;BME280;26283;49.020;8.644;2024-01-15T12:40:04;98069.88;;;3.79;63.30
40574;BME280;26283;49.020;8.644;2024-01-15T12:42:41;98056.53;;;3.79;63.30
40574;BME280;26283;49.020;8.644;2024-01-15T12:45:08;98072.53;;;3.79;63.30
40574;BME280;26283;49.020;8.644;2024-01-15T12:47:34;98080.53;;;3.79;63.28
40574;BME280;26283;49.020;8.644;2024-01-15T12:49:59;98071.50;;;3.80;63.29
40574;BME280;26283;49.020;8.644;2024-01-15T12:52:29;98081.34;;;3.79;63.28
40574;BME280;26283;49.020;8.644;2024-01-15T12:54:54;98086.47;;;3.81;63.28
40574;BME280;26283;49.020;8.644;2024-01-15T12:57:20;98075.81;;;3.81;63.27
40574;BME280;26283;49.020;8.644;2024-01-15T12:59:46;98075.00;;;3.81;63.26
40574;BME280;26283;49.020;8.644;2024-01-15T13:02:12;98072.31;;;3.81;63.26
40574;BME280;26283;49.020;8.644;2024-01-15T13:04:38;98073.97;;;3.82;63.26
40574;BME280;26283;49.020;8.644;2024-01-15T13:07:05;98069.47;;;3.82;63.25
40574;BME280;26283;49.020;8.644;2024-01-15T13:09:30;98074.78;;;3.82;63.25
40574;BME280;26283;49.020;8.644;2024-01-15T13:11:57;98070.28;;;3.83;63.24